sensor_id;sensor_type;location;lat;lon;timestamp;P1;durP1;ratioP1;P2;durP2;ratioP2
78053;SDS011;67263;45.638;11.714;2023-01-24T00:04:24;8.52;;;3.60;;
78053;SDS011;67263;45.638;11.714;2023-01-24T00:06:55;7.18;;;3.67;;
78053;SDS011;67263;45.638;11.714;2023-01-24T00:09:23;5.90;;;3.40;;
78053;SDS011;67263;45.638;11.714;2023-01-24T00:11:52;6.63;;;3.63;;
78053;SDS011;67263;45.638;11.714;2023-01-24T00:14:28;7.20;;;3.60;;
78053;SDS011;67263;45.638;11.714;2023-01-24T00:16:56;6.47;;;3.30;;
78053;SDS011;67263;45.638;11.714;2023-01-24T00:19:25;6.93;;;3.53;;
78053;SDS011;67263;45.638;11.714;2023-01-24T00:21:58;6.35;;;3.30;;
78053;SDS011;67263;45.638;11.714;2023-01-24T00:24:37;6.63;;;3.43;;
78053;SDS011;67263;45.638;11.714;2023-01-24T00:27:24;5.43;;;3.22;;
78053;SDS011;67263;45.638;11.714;2023-01-24T00:29:57;5.63;;;2.70;;
78053;SDS011;67263;45.638;11.714;2023-01-24T00:32:26;6.00;;;2.97;;
78053;SDS011;67263;45.638;11.714;2023-01-24T00:34:57;6.28;;;2.70;;
78053;SDS011;67263;45.638;11.714;2023-01-24T00:37:38;5.60;;;3.10;;
78053;SDS011;67263;45.638;11.714;2023-01-24T00:40:06;5.40;;;2.58;;
78053;SDS011;67263;45.638;11.714;2023-01-24T00:42:37;6.53;;;3.28;;
78053;SDS011;67263;45.638;11.714;2023-01-24T00:45:06;6.38;;;3.25;;
78053;SDS011;67263;45.638;11.714;2023-01-24T00:47:35;5.43;;;2.90;;
78053;SDS011;67263;45.638;11.714;2023-01-24T00:50:06;6.30;;;3.60;;
78053;SDS011;67263;45.638;11.714;2023-01-24T00:52:37;5.35;;;3.28;;
78053;SDS011;67263;45.638;11.714;2023-01-24T00:55:08;6.60;;;3.00;;
78053;SDS011;67263;45.638;11.714;2023-01-24T00:57:36;6.53;;;3.17;;
78053;SDS011;67263;45.638;11.714;2023-01-24T01:00:04;6.53;;;3.47;;
78053;SDS011;67263;45.638;11.714;2023-01-24T01:02:33;6.93;;;3.40;;
78053;SDS011;67263;45.638;11.714;2023-01-24T01:05:01;6.55;;;3.88;;
78053;SDS011;67263;45.638;11.714;2023-01-24T01:07:29;7.40;;;3.67;;
78053;SDS011;67263;45.638;11.714;2023-01-24T01:10:02;6.70;;;3.80;;
78053;SDS011;67263;45.638;11.714;2023-01-24T01:12:32;6.80;;;3.70;;
78053;SDS011;67263;45.638;11.714;2023-01-24T01:14:59;7.13;;;3.73;;
78053;SDS011;67263;45.638;11.714;2023-01-24T01:17:29;8.55;;;3.78;;
78053;SDS011;67263;45.638;11.714;2023-01-24T01:19:56;7.82;;;3.90;;
78053;SDS011;67263;45.638;11.714;2023-01-24T01:22:25;7.00;;;3.42;;
78053;SDS011;67263;45.638;11.714;2023-01-24T01:24:51;7.63;;;3.83;;
78053;SDS011;67263;45.638;11.714;2023-01-24T01:27:23;6.63;;;3.70;;
78053;SDS011;67263;45.638;11.714;2023-01-24T01:30:43;7.40;;;4.10;;
78053;SDS011;67263;45.638;11.714;2023-01-24T01:33:50;7.78;;;3.50;;
78053;SDS011;67263;45.638;11.714;2023-01-24T01:39:46;8.00;;;4.25;;
78053;SDS011;67263;45.638;11.714;2023-01-24T01:43:14;8.70;;;4.70;;
78053;SDS011;67263;45.638;11.714;2023-01-24T01:46:23;7.28;;;4.63;;
78053;SDS011;67263;45.638;11.714;2023-01-24T01:48:54;7.45;;;4.35;;
78053;SDS011;67263;45.638;11.714;2023-01-24T01:57:29;15.40;;;7.10;;
78053;SDS011;67263;45.638;11.714;2023-01-24T02:00:53;11.95;;;6.22;;
78053;SDS011;67263;45.638;11.714;2023-01-24T02:06:15;9.32;;;4.78;;
78053;SDS011;67263;45.638;11.714;2023-01-24T02:09:07;9.45;;;5.20;;
78053;SDS011;67263;45.638;11.714;2023-01-24T02:11:51;9.00;;;4.17;;
78053;SDS011;67263;45.638;11.714;2023-01-24T02:15:06;7.53;;;4.00;;
78053;SDS011;67263;45.638;11.714;2023-01-24T02:18:11;5.75;;;2.92;;
78053;SDS011;67263;45.638;11.714;2023-01-24T02:21:14;7.25;;;3.50;;
78053;SDS011;67263;45.638;11.714;2023-01-24T02:24:17;6.72;;;3.90;;
78053;SDS011;67263;45.638;11.714;2023-01-24T02:29:50;7.70;;;3.70;;
78053;SDS011;67263;45.638;11.714;2023-01-24T02:32:35;7.65;;;3.00;;
78053;SDS011;67263;45.638;11.714;2023-01-24T02:35:07;7.05;;;3.95;;
78053;SDS011;67263;45.638;11.714;2023-01-24T02:37:47;7.60;;;4.25;;
78053;SDS011;67263;45.638;11.714;2023-01-24T02:40:16;8.20;;;5.22;;
78053;SDS011;67263;45.638;11.714;2023-01-24T02:42:43;10.27;;;4.77;;
78053;SDS011;67263;45.638;11.714;2023-01-24T02:47:53;7.72;;;3.40;;
78053;SDS011;67263;45.638;11.714;2023-01-24T02:50:23;6.47;;;3.60;;
78053;SDS011;67263;45.638;11.714;2023-01-24T02:52:52;6.82;;;3.20;;
78053;SDS011;67263;45.638;11.714;2023-01-24T02:55:37;7.20;;;3.90;;
78053;SDS011;67263;45.638;11.714;2023-01-24T02:58:22;9.98;;;4.40;;
78053;SDS011;67263;45.638;11.714;2023-01-24T03:00:48;8.15;;;4.25;;
78053;SDS011;67263;45.638;11.714;2023-01-24T03:03:15;8.77;;;3.78;;
78053;SDS011;67263;45.638;11.714;2023-01-24T03:05:41;7.55;;;3.67;;
78053;SDS011;67263;45.638;11.714;2023-01-24T03:08:30;6.90;;;3.40;;
78053;SDS011;67263;45.638;11.714;2023-01-24T03:10:57;5.97;;;3.25;;
78053;SDS011;67263;45.638;11.714;2023-01-24T03:13:23;6.93;;;3.70;;
78053;SDS011;67263;45.638;11.714;2023-01-24T03:16:08;8.05;;;4.10;;
78053;SDS011;67263;45.638;11.714;2023-01-24T03:18:53;7.75;;;3.92;;
78053;SDS011;67263;45.638;11.714;2023-01-24T03:21:38;7.30;;;3.27;;
78053;SDS011;67263;45.638;11.714;2023-01-24T03:24:23;11.40;;;4.05;;
78053;SDS011;67263;45.638;11.714;2023-01-24T03:27:11;6.18;;;3.53;;
78053;SDS011;67263;45.638;11.714;2023-01-24T03:29:58;5.97;;;3.30;;
78053;SDS011;67263;45.638;11.714;2023-01-24T03:32:43;6.75;;;3.70;;
78053;SDS011;67263;45.638;11.714;2023-01-24T03:35:27;7.00;;;3.57;;
78053;SDS011;67263;45.638;11.714;2023-01-24T03:37:59;6.35;;;3.35;;
78053;SDS011;67263;45.638;11.714;2023-01-24T03:40:43;6.10;;;3.78;;
78053;SDS011;67263;45.638;11.714;2023-01-24T03:43:14;6.55;;;3.72;;
78053;SDS011;67263;45.638;11.714;2023-01-24T03:45:41;7.53;;;2.65;;
78053;SDS011;67263;45.638;11.714;2023-01-24T03:48:09;6.30;;;3.00;;
78053;SDS011;67263;45.638;11.714;2023-01-24T03:50:38;6.47;;;3.65;;
78053;SDS011;67263;45.638;11.714;2023-01-24T03:53:26;8.68;;;4.30;;
78053;SDS011;67263;45.638;11.714;2023-01-24T03:55:55;7.18;;;3.90;;
78053;SDS011;67263;45.638;11.714;2023-01-24T03:58:23;7.85;;;3.65;;
78053;SDS011;67263;45.638;11.714;2023-01-24T04:00:50;7.03;;;3.50;;
78053;SDS011;67263;45.638;11.714;2023-01-24T04:03:17;6.40;;;3.55;;
78053;SDS011;67263;45.638;11.714;2023-01-24T04:05:45;7.18;;;3.33;;
78053;SDS011;67263;45.638;11.714;2023-01-24T04:08:15;5.80;;;2.80;;
78053;SDS011;67263;45.638;11.714;2023-01-24T04:10:47;6.00;;;3.20;;
78053;SDS011;67263;45.638;11.714;2023-01-24T04:13:16;5.80;;;3.27;;
78053;SDS011;67263;45.638;11.714;2023-01-24T04:15:42;5.78;;;3.17;;
78053;SDS011;67263;45.638;11.714;2023-01-24T04:18:10;5.53;;;2.80;;
78053;SDS011;67263;45.638;11.714;2023-01-24T04:20:36;5.30;;;2.80;;
78053;SDS011;67263;45.638;11.714;2023-01-24T04:23:04;6.88;;;3.13;;
78053;SDS011;67263;45.638;11.714;2023-01-24T04:25:31;5.93;;;3.10;;
78053;SDS011;67263;45.638;11.714;2023-01-24T04:27:57;7.57;;;3.25;;
78053;SDS011;67263;45.638;11.714;2023-01-24T04:30:23;6.47;;;3.03;;
78053;SDS011;67263;45.638;11.714;2023-01-24T04:32:51;5.47;;;3.05;;
78053;SDS011;67263;45.638;11.714;2023-01-24T04:35:25;6.70;;;3.10;;
78053;SDS011;67263;45.638;11.714;2023-01-24T04:37:59;6.57;;;3.13;;
78053;SDS011;67263;45.638;11.714;2023-01-24T04:40:26;5.60;;;3.30;;
78053;SDS011;67263;45.638;11.714;2023-01-24T04:42:52;5.63;;;3.30;;
78053;SDS011;67263;45.638;11.714;2023-01-24T04:45:20;6.05;;;3.65;;
78053;SDS011;67263;45.638;11.714;2023-01-24T04:47:46;9.07;;;4.13;;
78053;SDS011;67263;45.638;11.714;2023-01-24T04:50:12;6.50;;;3.50;;
78053;SDS011;67263;45.638;11.714;2023-01-24T04:52:38;6.93;;;3.47;;
78053;SDS011;67263;45.638;11.714;2023-01-24T04:55:05;5.85;;;3.42;;
78053;SDS011;67263;45.638;11.714;2023-01-24T04:57:32;5.97;;;3.13;;
78053;SDS011;67263;45.638;11.714;2023-01-24T04:59:58;6.60;;;3.63;;
78053;SDS011;67263;45.638;11.714;2023-01-24T05:02:23;6.80;;;3.60;;
78053;SDS011;67263;45.638;11.714;2023-01-24T05:04:49;6.70;;;3.77;;
78053;SDS011;67263;45.638;11.714;2023-01-24T05:07:15;7.40;;;3.73;;
78053;SDS011;67263;45.638;11.714;2023-01-24T05:09:41;6.20;;;3.50;;
78053;SDS011;67263;45.638;11.714;2023-01-24T05:12:07;8.10;;;3.67;;
78053;SDS011;67263;45.638;11.714;2023-01-24T05:14:33;7.40;;;3.77;;
78053;SDS011;67263;45.638;11.714;2023-01-24T05:16:59;6.00;;;3.20;;
78053;SDS011;67263;45.638;11.714;2023-01-24T05:19:25;7.32;;;3.05;;
78053;SDS011;67263;45.638;11.714;2023-01-24T05:21:50;5.57;;;2.70;;
78053;SDS011;67263;45.638;11.714;2023-01-24T05:24:16;5.45;;;3.10;;
78053;SDS011;67263;45.638;11.714;2023-01-24T05:26:43;7.20;;;3.60;;
78053;SDS011;67263;45.638;11.714;2023-01-24T05:29:09;5.93;;;3.17;;
78053;SDS011;67263;45.638;11.714;2023-01-24T05:31:35;5.18;;;2.60;;
78053;SDS011;67263;45.638;11.714;2023-01-24T05:34:01;6.82;;;3.13;;
78053;SDS011;67263;45.638;11.714;2023-01-24T05:36:27;7.40;;;3.10;;
78053;SDS011;67263;45.638;11.714;2023-01-24T05:38:53;5.78;;;3.00;;
78053;SDS011;67263;45.638;11.714;2023-01-24T05:41:19;6.78;;;3.40;;
78053;SDS011;67263;45.638;11.714;2023-01-24T05:43:46;5.67;;;2.90;;
78053;SDS011;67263;45.638;11.714;2023-01-24T05:46:13;6.03;;;2.90;;
78053;SDS011;67263;45.638;11.714;2023-01-24T05:48:45;7.25;;;3.63;;
78053;SDS011;67263;45.638;11.714;2023-01-24T05:51:12;10.48;;;3.55;;
78053;SDS011;67263;45.638;11.714;2023-01-24T05:53:40;8.32;;;4.30;;
78053;SDS011;67263;45.638;11.714;2023-01-24T05:56:13;9.67;;;4.37;;
78053;SDS011;67263;45.638;11.714;2023-01-24T05:58:43;8.40;;;4.43;;
78053;SDS011;67263;45.638;11.714;2023-01-24T06:01:11;7.28;;;4.15;;
78053;SDS011;67263;45.638;11.714;2023-01-24T06:03:42;7.50;;;3.80;;
78053;SDS011;67263;45.638;11.714;2023-01-24T06:06:09;8.95;;;4.25;;
78053;SDS011;67263;45.638;11.714;2023-01-24T06:08:36;7.30;;;4.10;;
78053;SDS011;67263;45.638;11.714;2023-01-24T06:11:06;8.93;;;4.85;;
78053;SDS011;67263;45.638;11.714;2023-01-24T06:13:37;10.50;;;4.57;;
78053;SDS011;67263;45.638;11.714;2023-01-24T06:16:04;7.57;;;4.68;;
78053;SDS011;67263;45.638;11.714;2023-01-24T06:18:32;10.00;;;4.80;;
78053;SDS011;67263;45.638;11.714;2023-01-24T06:21:03;11.77;;;5.50;;
78053;SDS011;67263;45.638;11.714;2023-01-24T06:23:32;12.27;;;6.32;;
78053;SDS011;67263;45.638;11.714;2023-01-24T06:25:58;12.50;;;7.28;;
78053;SDS011;67263;45.638;11.714;2023-01-24T06:28:24;12.25;;;7.93;;
78053;SDS011;67263;45.638;11.714;2023-01-24T06:30:59;13.35;;;7.25;;
78053;SDS011;67263;45.638;11.714;2023-01-24T06:33:35;13.30;;;6.27;;
78053;SDS011;67263;45.638;11.714;2023-01-24T06:36:34;11.15;;;6.72;;
78053;SDS011;67263;45.638;11.714;2023-01-24T06:39:31;13.18;;;6.35;;
78053;SDS011;67263;45.638;11.714;2023-01-24T06:42:00;13.63;;;6.68;;
78053;SDS011;67263;45.638;11.714;2023-01-24T06:44:30;15.82;;;7.47;;
78053;SDS011;67263;45.638;11.714;2023-01-24T06:47:17;10.63;;;6.10;;
78053;SDS011;67263;45.638;11.714;2023-01-24T06:52:56;11.40;;;7.18;;
78053;SDS011;67263;45.638;11.714;2023-01-24T06:55:39;10.07;;;5.90;;
78053;SDS011;67263;45.638;11.714;2023-01-24T06:58:48;12.50;;;6.50;;
78053;SDS011;67263;45.638;11.714;2023-01-24T07:01:22;13.87;;;7.87;;
78053;SDS011;67263;45.638;11.714;2023-01-24T07:03:58;94.22;;;49.33;;
78053;SDS011;67263;45.638;11.714;2023-01-24T07:06:36;47.47;;;36.00;;
78053;SDS011;67263;45.638;11.714;2023-01-24T07:09:22;35.13;;;23.30;;
78053;SDS011;67263;45.638;11.714;2023-01-24T07:12:00;22.75;;;13.77;;
78053;SDS011;67263;45.638;11.714;2023-01-24T07:15:24;12.73;;;7.73;;
78053;SDS011;67263;45.638;11.714;2023-01-24T07:17:56;14.60;;;6.70;;
78053;SDS011;67263;45.638;11.714;2023-01-24T07:20:51;45.28;;;17.20;;
78053;SDS011;67263;45.638;11.714;2023-01-24T07:23:43;18.60;;;10.90;;
78053;SDS011;67263;45.638;11.714;2023-01-24T07:26:42;20.02;;;11.77;;
78053;SDS011;67263;45.638;11.714;2023-01-24T07:29:14;14.90;;;7.53;;
78053;SDS011;67263;45.638;11.714;2023-01-24T07:35:17;21.55;;;12.10;;
78053;SDS011;67263;45.638;11.714;2023-01-24T07:37:47;43.65;;;20.90;;
78053;SDS011;67263;45.638;11.714;2023-01-24T07:40:34;45.60;;;22.23;;
78053;SDS011;67263;45.638;11.714;2023-01-24T07:48:10;87.38;;;35.15;;
78053;SDS011;67263;45.638;11.714;2023-01-24T07:50:36;59.50;;;23.90;;
78053;SDS011;67263;45.638;11.714;2023-01-24T07:53:05;69.80;;;29.83;;
78053;SDS011;67263;45.638;11.714;2023-01-24T07:55:31;60.23;;;26.07;;
78053;SDS011;67263;45.638;11.714;2023-01-24T07:57:58;40.25;;;19.70;;
78053;SDS011;67263;45.638;11.714;2023-01-24T08:02:51;64.27;;;27.00;;
78053;SDS011;67263;45.638;11.714;2023-01-24T08:05:16;66.95;;;26.85;;
78053;SDS011;67263;45.638;11.714;2023-01-24T08:07:42;23.70;;;14.17;;
78053;SDS011;67263;45.638;11.714;2023-01-24T08:10:08;26.25;;;15.45;;
78053;SDS011;67263;45.638;11.714;2023-01-24T08:12:34;19.75;;;13.07;;
78053;SDS011;67263;45.638;11.714;2023-01-24T08:15:01;22.55;;;12.93;;
78053;SDS011;67263;45.638;11.714;2023-01-24T08:17:29;19.05;;;11.88;;
78053;SDS011;67263;45.638;11.714;2023-01-24T08:19:56;16.63;;;10.30;;
78053;SDS011;67263;45.638;11.714;2023-01-24T08:22:24;16.88;;;10.48;;
78053;SDS011;67263;45.638;11.714;2023-01-24T08:24:52;17.33;;;11.07;;
78053;SDS011;67263;45.638;11.714;2023-01-24T08:27:22;15.88;;;10.40;;
78053;SDS011;67263;45.638;11.714;2023-01-24T08:29:48;18.23;;;11.33;;
78053;SDS011;67263;45.638;11.714;2023-01-24T08:32:14;14.98;;;10.70;;
78053;SDS011;67263;45.638;11.714;2023-01-24T08:34:42;26.88;;;12.88;;
78053;SDS011;67263;45.638;11.714;2023-01-24T08:37:08;14.77;;;9.25;;
78053;SDS011;67263;45.638;11.714;2023-01-24T08:39:34;20.50;;;10.43;;
78053;SDS011;67263;45.638;11.714;2023-01-24T08:42:03;21.17;;;11.63;;
78053;SDS011;67263;45.638;11.714;2023-01-24T08:45:07;18.23;;;9.50;;
78053;SDS011;67263;45.638;11.714;2023-01-24T08:47:53;17.80;;;8.50;;
78053;SDS011;67263;45.638;11.714;2023-01-24T08:50:42;12.05;;;6.25;;
78053;SDS011;67263;45.638;11.714;2023-01-24T08:53:11;13.95;;;7.25;;
78053;SDS011;67263;45.638;11.714;2023-01-24T08:55:39;11.48;;;6.90;;
78053;SDS011;67263;45.638;11.714;2023-01-24T08:58:09;10.40;;;6.15;;
78053;SDS011;67263;45.638;11.714;2023-01-24T09:00:37;10.77;;;6.00;;
78053;SDS011;67263;45.638;11.714;2023-01-24T09:03:11;10.20;;;4.70;;
78053;SDS011;67263;45.638;11.714;2023-01-24T09:05:39;9.07;;;5.13;;
78053;SDS011;67263;45.638;11.714;2023-01-24T09:08:08;9.18;;;5.28;;
78053;SDS011;67263;45.638;11.714;2023-01-24T09:10:34;9.57;;;4.07;;
78053;SDS011;67263;45.638;11.714;2023-01-24T09:13:01;6.70;;;3.40;;
78053;SDS011;67263;45.638;11.714;2023-01-24T09:15:28;6.25;;;2.67;;
78053;SDS011;67263;45.638;11.714;2023-01-24T09:17:54;5.75;;;2.60;;
78053;SDS011;67263;45.638;11.714;2023-01-24T09:20:20;4.90;;;1.95;;
78053;SDS011;67263;45.638;11.714;2023-01-24T09:22:46;5.57;;;2.30;;
78053;SDS011;67263;45.638;11.714;2023-01-24T09:25:12;5.53;;;2.70;;
78053;SDS011;67263;45.638;11.714;2023-01-24T09:27:38;5.78;;;2.63;;
78053;SDS011;67263;45.638;11.714;2023-01-24T09:30:07;5.60;;;2.58;;
78053;SDS011;67263;45.638;11.714;2023-01-24T09:32:35;5.60;;;2.25;;
78053;SDS011;67263;45.638;11.714;2023-01-24T09:35:01;5.63;;;2.83;;
78053;SDS011;67263;45.638;11.714;2023-01-24T09:37:28;6.37;;;2.70;;
78053;SDS011;67263;45.638;11.714;2023-01-24T09:39:54;5.88;;;2.67;;
78053;SDS011;67263;45.638;11.714;2023-01-24T09:42:30;6.88;;;2.80;;
78053;SDS011;67263;45.638;11.714;2023-01-24T09:47:42;7.97;;;2.93;;
78053;SDS011;67263;45.638;11.714;2023-01-24T09:53:21;7.25;;;2.97;;
78053;SDS011;67263;45.638;11.714;2023-01-24T09:55:51;6.43;;;3.30;;
78053;SDS011;67263;45.638;11.714;2023-01-24T10:03:30;7.38;;;3.35;;
78053;SDS011;67263;45.638;11.714;2023-01-24T10:06:06;7.50;;;2.53;;
78053;SDS011;67263;45.638;11.714;2023-01-24T10:11:25;6.70;;;3.60;;
78053;SDS011;67263;45.638;11.714;2023-01-24T10:20:00;4.95;;;1.95;;
78053;SDS011;67263;45.638;11.714;2023-01-24T10:22:52;4.35;;;1.85;;
78053;SDS011;67263;45.638;11.714;2023-01-24T10:25:35;6.05;;;1.85;;
78053;SDS011;67263;45.638;11.714;2023-01-24T10:28:02;4.97;;;2.00;;
78053;SDS011;67263;45.638;11.714;2023-01-24T10:30:49;5.40;;;2.40;;
78053;SDS011;67263;45.638;11.714;2023-01-24T10:33:30;5.07;;;1.95;;
78053;SDS011;67263;45.638;11.714;2023-01-24T10:36:08;4.60;;;1.98;;
78053;SDS011;67263;45.638;11.714;2023-01-24T10:38:41;4.82;;;2.40;;
78053;SDS011;67263;45.638;11.714;2023-01-24T10:43:36;4.50;;;2.03;;
78053;SDS011;67263;45.638;11.714;2023-01-24T10:46:27;6.00;;;2.22;;
78053;SDS011;67263;45.638;11.714;2023-01-24T10:49:09;6.65;;;2.30;;
78053;SDS011;67263;45.638;11.714;2023-01-24T10:51:43;4.80;;;1.95;;
78053;SDS011;67263;45.638;11.714;2023-01-24T10:54:30;6.07;;;3.47;;
78053;SDS011;67263;45.638;11.714;2023-01-24T10:56:59;4.93;;;2.45;;
78053;SDS011;67263;45.638;11.714;2023-01-24T10:59:24;5.32;;;2.30;;
78053;SDS011;67263;45.638;11.714;2023-01-24T11:01:50;4.93;;;2.27;;
78053;SDS011;67263;45.638;11.714;2023-01-24T11:04:25;6.88;;;2.28;;
78053;SDS011;67263;45.638;11.714;2023-01-24T11:06:54;5.35;;;2.28;;
78053;SDS011;67263;45.638;11.714;2023-01-24T11:09:22;5.78;;;2.40;;
78053;SDS011;67263;45.638;11.714;2023-01-24T11:11:55;5.63;;;2.50;;
78053;SDS011;67263;45.638;11.714;2023-01-24T11:17:01;5.55;;;2.47;;
78053;SDS011;67263;45.638;11.714;2023-01-24T11:21:54;6.13;;;3.00;;
78053;SDS011;67263;45.638;11.714;2023-01-24T11:24:21;7.22;;;2.50;;
78053;SDS011;67263;45.638;11.714;2023-01-24T11:26:53;5.85;;;2.40;;
78053;SDS011;67263;45.638;11.714;2023-01-24T11:29:22;6.07;;;2.42;;
78053;SDS011;67263;45.638;11.714;2023-01-24T11:31:55;5.03;;;2.55;;
78053;SDS011;67263;45.638;11.714;2023-01-24T11:37:22;6.45;;;2.83;;
78053;SDS011;67263;45.638;11.714;2023-01-24T11:40:28;5.38;;;2.60;;
78053;SDS011;67263;45.638;11.714;2023-01-24T11:48:51;6.97;;;3.30;;
78053;SDS011;67263;45.638;11.714;2023-01-24T11:54:42;7.82;;;3.22;;
78053;SDS011;67263;45.638;11.714;2023-01-24T11:57:31;6.38;;;3.85;;
78053;SDS011;67263;45.638;11.714;2023-01-24T12:00:35;7.15;;;3.15;;
78053;SDS011;67263;45.638;11.714;2023-01-24T12:06:14;7.05;;;3.50;;
78053;SDS011;67263;45.638;11.714;2023-01-24T12:09:25;8.18;;;3.90;;
78053;SDS011;67263;45.638;11.714;2023-01-24T12:21:03;5.20;;;2.20;;
78053;SDS011;67263;45.638;11.714;2023-01-24T12:23:45;4.65;;;2.22;;
78053;SDS011;67263;45.638;11.714;2023-01-24T12:26:39;5.22;;;2.25;;
78053;SDS011;67263;45.638;11.714;2023-01-24T12:36:35;6.20;;;2.40;;
78053;SDS011;67263;45.638;11.714;2023-01-24T12:38:49;5.47;;;2.63;;
78053;SDS011;67263;45.638;11.714;2023-01-24T12:41:42;6.15;;;2.75;;
78053;SDS011;67263;45.638;11.714;2023-01-24T12:53:41;4.55;;;2.40;;
78053;SDS011;67263;45.638;11.714;2023-01-24T12:56:19;4.25;;;1.90;;
78053;SDS011;67263;45.638;11.714;2023-01-24T12:59:29;5.00;;;2.10;;
78053;SDS011;67263;45.638;11.714;2023-01-24T13:02:41;4.40;;;1.87;;
78053;SDS011;67263;45.638;11.714;2023-01-24T13:08:50;6.20;;;2.85;;
78053;SDS011;67263;45.638;11.714;2023-01-24T13:11:46;6.03;;;2.30;;
78053;SDS011;67263;45.638;11.714;2023-01-24T13:14:26;5.82;;;2.67;;
78053;SDS011;67263;45.638;11.714;2023-01-24T13:17:10;4.20;;;2.00;;
78053;SDS011;67263;45.638;11.714;2023-01-24T13:29:25;5.43;;;2.20;;
78053;SDS011;67263;45.638;11.714;2023-01-24T13:34:40;5.25;;;2.08;;
78053;SDS011;67263;45.638;11.714;2023-01-24T13:37:17;4.70;;;2.30;;
78053;SDS011;67263;45.638;11.714;2023-01-24T13:40:06;4.75;;;2.22;;
78053;SDS011;67263;45.638;11.714;2023-01-24T13:43:03;4.13;;;1.67;;
78053;SDS011;67263;45.638;11.714;2023-01-24T13:45:49;4.63;;;2.03;;
78053;SDS011;67263;45.638;11.714;2023-01-24T13:56:26;5.35;;;2.30;;
78053;SDS011;67263;45.638;11.714;2023-01-24T13:58:54;5.23;;;2.50;;
78053;SDS011;67263;45.638;11.714;2023-01-24T14:01:22;6.70;;;3.05;;
78053;SDS011;67263;45.638;11.714;2023-01-24T14:03:59;11.02;;;5.45;;
78053;SDS011;67263;45.638;11.714;2023-01-24T14:06:38;8.77;;;4.03;;
78053;SDS011;67263;45.638;11.714;2023-01-24T14:09:13;8.35;;;4.43;;
78053;SDS011;67263;45.638;11.714;2023-01-24T14:12:02;10.20;;;5.67;;
78053;SDS011;67263;45.638;11.714;2023-01-24T14:14:31;8.15;;;3.20;;
78053;SDS011;67263;45.638;11.714;2023-01-24T14:17:25;7.07;;;3.67;;
78053;SDS011;67263;45.638;11.714;2023-01-24T14:19:53;8.13;;;3.20;;
78053;SDS011;67263;45.638;11.714;2023-01-24T14:22:22;6.15;;;3.08;;
78053;SDS011;67263;45.638;11.714;2023-01-24T14:25:03;8.77;;;2.93;;
78053;SDS011;67263;45.638;11.714;2023-01-24T14:27:53;8.77;;;3.78;;
78053;SDS011;67263;45.638;11.714;2023-01-24T14:30:30;6.10;;;2.65;;
78053;SDS011;67263;45.638;11.714;2023-01-24T14:33:05;9.07;;;4.10;;
78053;SDS011;67263;45.638;11.714;2023-01-24T14:35:54;7.32;;;3.50;;
78053;SDS011;67263;45.638;11.714;2023-01-24T14:38:26;8.40;;;3.40;;
78053;SDS011;67263;45.638;11.714;2023-01-24T14:40:53;11.93;;;6.55;;
78053;SDS011;67263;45.638;11.714;2023-01-24T14:43:20;10.80;;;6.43;;
78053;SDS011;67263;45.638;11.714;2023-01-24T14:45:49;13.82;;;6.93;;
78053;SDS011;67263;45.638;11.714;2023-01-24T14:48:24;12.13;;;7.07;;
78053;SDS011;67263;45.638;11.714;2023-01-24T14:50:58;12.83;;;7.20;;
78053;SDS011;67263;45.638;11.714;2023-01-24T14:53:30;10.50;;;5.82;;
78053;SDS011;67263;45.638;11.714;2023-01-24T14:56:00;8.25;;;4.63;;
78053;SDS011;67263;45.638;11.714;2023-01-24T14:58:30;7.93;;;3.80;;
78053;SDS011;67263;45.638;11.714;2023-01-24T15:00:57;6.77;;;4.37;;
78053;SDS011;67263;45.638;11.714;2023-01-24T15:03:27;8.18;;;4.30;;
78053;SDS011;67263;45.638;11.714;2023-01-24T15:06:01;10.52;;;5.55;;
78053;SDS011;67263;45.638;11.714;2023-01-24T15:08:29;14.73;;;7.28;;
78053;SDS011;67263;45.638;11.714;2023-01-24T15:13:31;13.87;;;7.20;;
78053;SDS011;67263;45.638;11.714;2023-01-24T15:16:21;14.85;;;6.43;;
78053;SDS011;67263;45.638;11.714;2023-01-24T15:18:50;16.63;;;9.00;;
78053;SDS011;67263;45.638;11.714;2023-01-24T15:21:31;20.10;;;10.48;;
78053;SDS011;67263;45.638;11.714;2023-01-24T15:23:58;11.52;;;5.50;;
78053;SDS011;67263;45.638;11.714;2023-01-24T15:28:57;10.00;;;4.28;;
78053;SDS011;67263;45.638;11.714;2023-01-24T15:31:27;7.20;;;3.40;;
78053;SDS011;67263;45.638;11.714;2023-01-24T15:33:56;9.60;;;3.75;;
78053;SDS011;67263;45.638;11.714;2023-01-24T15:36:27;11.77;;;5.40;;
78053;SDS011;67263;45.638;11.714;2023-01-24T15:38:55;9.07;;;4.90;;
78053;SDS011;67263;45.638;11.714;2023-01-24T15:41:24;9.13;;;3.67;;
78053;SDS011;67263;45.638;11.714;2023-01-24T15:44:11;16.58;;;6.13;;
78053;SDS011;67263;45.638;11.714;2023-01-24T15:46:39;18.58;;;8.05;;
78053;SDS011;67263;45.638;11.714;2023-01-24T15:49:31;33.75;;;14.60;;
78053;SDS011;67263;45.638;11.714;2023-01-24T15:52:01;24.37;;;10.67;;
78053;SDS011;67263;45.638;11.714;2023-01-24T15:54:37;16.08;;;7.05;;
78053;SDS011;67263;45.638;11.714;2023-01-24T15:57:05;8.48;;;4.03;;
78053;SDS011;67263;45.638;11.714;2023-01-24T15:59:46;8.93;;;3.45;;
78053;SDS011;67263;45.638;11.714;2023-01-24T16:02:15;8.55;;;3.45;;
78053;SDS011;67263;45.638;11.714;2023-01-24T16:04:41;7.13;;;3.90;;
78053;SDS011;67263;45.638;11.714;2023-01-24T16:07:10;7.82;;;3.53;;
78053;SDS011;67263;45.638;11.714;2023-01-24T16:09:49;11.85;;;5.03;;
78053;SDS011;67263;45.638;11.714;2023-01-24T16:12:18;10.43;;;4.47;;
78053;SDS011;67263;45.638;11.714;2023-01-24T16:14:57;4.80;;;2.65;;
78053;SDS011;67263;45.638;11.714;2023-01-24T16:17:46;6.87;;;3.20;;
78053;SDS011;67263;45.638;11.714;2023-01-24T16:24:27;8.10;;;3.97;;
78053;SDS011;67263;45.638;11.714;2023-01-24T16:27:15;12.25;;;7.38;;
78053;SDS011;67263;45.638;11.714;2023-01-24T16:30:06;16.00;;;9.05;;
78053;SDS011;67263;45.638;11.714;2023-01-24T16:32:46;11.47;;;7.20;;
78053;SDS011;67263;45.638;11.714;2023-01-24T16:35:14;15.63;;;9.20;;
78053;SDS011;67263;45.638;11.714;2023-01-24T16:37:43;18.05;;;10.90;;
78053;SDS011;67263;45.638;11.714;2023-01-24T16:40:10;22.33;;;12.88;;
78053;SDS011;67263;45.638;11.714;2023-01-24T16:42:39;21.45;;;12.27;;
78053;SDS011;67263;45.638;11.714;2023-01-24T16:45:12;21.40;;;11.93;;
78053;SDS011;67263;45.638;11.714;2023-01-24T16:47:42;24.02;;;13.73;;
78053;SDS011;67263;45.638;11.714;2023-01-24T16:50:09;23.75;;;12.90;;
78053;SDS011;67263;45.638;11.714;2023-01-24T16:52:36;26.52;;;15.07;;
78053;SDS011;67263;45.638;11.714;2023-01-24T16:55:04;26.80;;;14.43;;
78053;SDS011;67263;45.638;11.714;2023-01-24T16:57:31;27.50;;;15.23;;
78053;SDS011;67263;45.638;11.714;2023-01-24T16:59:57;43.15;;;22.85;;
78053;SDS011;67263;45.638;11.714;2023-01-24T17:02:23;38.47;;;20.25;;
78053;SDS011;67263;45.638;11.714;2023-01-24T17:04:49;40.43;;;17.93;;
78053;SDS011;67263;45.638;11.714;2023-01-24T17:07:15;51.15;;;25.95;;
78053;SDS011;67263;45.638;11.714;2023-01-24T17:09:41;28.20;;;13.90;;
78053;SDS011;67263;45.638;11.714;2023-01-24T17:12:09;19.98;;;11.55;;
78053;SDS011;67263;45.638;11.714;2023-01-24T17:14:35;23.03;;;10.60;;
78053;SDS011;67263;45.638;11.714;2023-01-24T17:17:06;20.55;;;10.98;;
78053;SDS011;67263;45.638;11.714;2023-01-24T17:19:53;19.23;;;11.02;;
78053;SDS011;67263;45.638;11.714;2023-01-24T17:22:21;18.92;;;10.13;;
78053;SDS011;67263;45.638;11.714;2023-01-24T17:24:47;16.93;;;10.37;;
78053;SDS011;67263;45.638;11.714;2023-01-24T17:27:13;17.40;;;9.40;;